createdAt,value
2022-07-30T00:01:14.367Z,4.38
2022-07-30T00:03:41.019Z,5.28
2022-07-30T00:06:07.795Z,4.40
2022-07-30T00:08:35.064Z,4.47
2022-07-30T00:11:01.607Z,4.60
2022-07-30T00:13:28.184Z,4.78
2022-07-30T00:15:54.823Z,5.25
2022-07-30T00:18:22.418Z,4.18
2022-07-30T00:20:49.558Z,4.50
2022-07-30T00:23:17.339Z,5.10
2022-07-30T00:25:44.390Z,5.07
2022-07-30T00:28:11.053Z,5.05
2022-07-30T00:30:38.900Z,4.20
2022-07-30T00:33:05.535Z,4.45
2022-07-30T00:35:34.885Z,5.50
2022-07-30T00:38:01.601Z,5.13
2022-07-30T00:40:28.678Z,5.13
2022-07-30T00:42:55.269Z,5.28
2022-07-30T00:45:22.286Z,5.22
2022-07-30T00:47:48.964Z,4.93
2022-07-30T00:50:16.442Z,4.93
2022-07-30T00:52:43.876Z,6.32
2022-07-30T00:55:13.538Z,5.63
2022-07-30T00:57:41.324Z,4.80
2022-07-30T01:00:11.450Z,6.13
2022-07-30T01:02:38.236Z,5.63
2022-07-30T01:05:05.774Z,6.10
2022-07-30T01:07:32.562Z,5.50
2022-07-30T01:09:59.154Z,5.38
2022-07-30T01:12:27.385Z,5.53
2022-07-30T01:14:56.085Z,5.50
2022-07-30T01:17:22.856Z,5.95
2022-07-30T01:19:52.583Z,5.88
2022-07-30T01:22:28.995Z,5.70
2022-07-30T01:25:07.611Z,6.28
2022-07-30T01:27:40.411Z,5.50
2022-07-30T01:30:08.667Z,5.53
2022-07-30T01:32:38.906Z,6.38
2022-07-30T01:35:07.542Z,6.18
2022-07-30T01:37:35.036Z,6.80
2022-07-30T01:40:03.454Z,6.90
2022-07-30T01:42:31.065Z,6.38
2022-07-30T01:44:59.316Z,6.28
2022-07-30T01:47:28.384Z,5.88
2022-07-30T01:49:57.222Z,6.22
2022-07-30T01:52:26.804Z,6.03
2022-07-30T01:54:56.142Z,6.90
2022-07-30T01:57:23.433Z,6.40
2022-07-30T01:59:54.901Z,6.43
2022-07-30T02:02:21.657Z,7.82
2022-07-30T02:04:48.958Z,6.93
2022-07-30T02:07:23.122Z,6.85
2022-07-30T02:10:01.716Z,7.15
2022-07-30T02:12:34.146Z,7.43
2022-07-30T02:15:27.005Z,7.88
2022-07-30T02:18:03.189Z,8.13
2022-07-30T02:20:33.737Z,8.70
2022-07-30T02:23:07.105Z,7.68
2022-07-30T02:25:35.783Z,6.30
2022-07-30T02:28:09.413Z,6.97
2022-07-30T02:30:40.538Z,6.63
2022-07-30T02:33:10.688Z,7.55
2022-07-30T02:35:38.918Z,8.15
2022-07-30T02:38:06.789Z,7.55
2022-07-30T02:40:33.599Z,7.97
2022-07-30T02:43:01.576Z,8.50
2022-07-30T02:45:30.788Z,7.90
2022-07-30T02:48:03.943Z,8.48
2022-07-30T02:50:31.205Z,8.27
2022-07-30T02:52:59.526Z,7.25
2022-07-30T02:55:28.386Z,7.63
2022-07-30T02:57:56.427Z,7.63
2022-07-30T03:00:24.954Z,7.05
2022-07-30T03:02:56.643Z,7.75
2022-07-30T03:05:25.177Z,7.88
2022-07-30T03:07:58.242Z,8.52
2022-07-30T03:10:27.188Z,8.02
2022-07-30T03:12:55.058Z,7.80
2022-07-30T03:15:21.918Z,8.85
2022-07-30T03:17:53.900Z,7.63
2022-07-30T03:20:27.547Z,8.00
2022-07-30T03:22:55.583Z,8.50
2022-07-30T03:25:29.720Z,8.55
2022-07-30T03:28:00.212Z,8.10
2022-07-30T03:30:28.369Z,9.23
2022-07-30T03:32:56.161Z,8.77
2022-07-30T03:35:26.612Z,8.45
2022-07-30T03:37:55.359Z,9.68
2022-07-30T03:40:23.136Z,9.10
2022-07-30T03:42:50.672Z,9.40
2022-07-30T03:45:21.652Z,9.70
2022-07-30T03:47:50.008Z,8.85
2022-07-30T03:50:16.785Z,8.80
2022-07-30T03:52:44.136Z,9.20
2022-07-30T03:55:16.024Z,8.77
2022-07-30T03:57:49.008Z,8.82
2022-07-30T04:00:17.324Z,8.57
2022-07-30T04:02:49.689Z,8.88
2022-07-30T04:05:19.373Z,8.80
2022-07-30T04:07:47.132Z,10.35
2022-07-30T04:10:16.609Z,9.00
2022-07-30T04:13:09.742Z,9.15
2022-07-30T04:16:41.535Z,9.43
2022-07-30T04:18:56.372Z,9.30
2022-07-30T04:21:26.965Z,9.52
2022-07-30T04:24:03.837Z,8.63
2022-07-30T04:26:34.136Z,9.40
2022-07-30T04:29:01.846Z,9.18
2022-07-30T04:31:29.960Z,8.60
2022-07-30T04:36:39.426Z,8.85
2022-07-30T04:39:06.081Z,8.93
2022-07-30T04:41:36.272Z,8.38
2022-07-30T04:44:29.353Z,9.15
2022-07-30T04:47:25.510Z,9.02
2022-07-30T04:50:15.219Z,8.20
2022-07-30T04:52:44.449Z,8.60
2022-07-30T04:55:15.176Z,8.60
2022-07-30T04:57:45.168Z,8.93
2022-07-30T05:00:12.320Z,9.35
2022-07-30T05:02:42.015Z,10.35
2022-07-30T05:05:11.998Z,8.85
2022-07-30T05:07:39.608Z,10.25
2022-07-30T05:10:09.131Z,9.70
2022-07-30T05:12:40.021Z,9.32
2022-07-30T05:15:08.994Z,9.73
2022-07-30T05:17:36.987Z,9.82
2022-07-30T05:20:06.651Z,10.15
2022-07-30T05:22:51.109Z,10.90
2022-07-30T05:25:18.640Z,10.18
2022-07-30T05:27:45.527Z,10.10
2022-07-30T05:30:12.385Z,11.55
2022-07-30T05:32:44.060Z,10.68
2022-07-30T05:35:13.407Z,10.10
2022-07-30T05:37:40.069Z,11.75
2022-07-30T05:40:07.617Z,10.25
2022-07-30T05:43:00.311Z,11.40
2022-07-30T05:45:27.724Z,12.23
2022-07-30T05:47:54.312Z,11.43
2022-07-30T05:50:21.036Z,12.10
2022-07-30T05:52:47.897Z,11.73
2022-07-30T05:55:36.437Z,11.05
2022-07-30T05:58:17.598Z,11.27
2022-07-30T06:00:44.551Z,11.55
2022-07-30T06:03:11.276Z,11.20
2022-07-30T06:05:56.496Z,11.43
2022-07-30T06:08:23.116Z,10.65
2022-07-30T06:10:49.832Z,11.02
2022-07-30T06:13:16.474Z,10.73
2022-07-30T06:15:43.112Z,10.48
2022-07-30T06:18:09.780Z,12.30
2022-07-30T06:20:41.907Z,11.40
2022-07-30T06:23:21.311Z,12.73
2022-07-30T06:26:02.218Z,13.93
2022-07-30T06:28:37.591Z,12.18
2022-07-30T06:31:12.363Z,13.57
2022-07-30T06:33:39.013Z,12.40
2022-07-30T06:36:05.974Z,12.30
2022-07-30T06:38:41.855Z,12.07
2022-07-30T06:41:15.797Z,12.55
2022-07-30T06:43:51.512Z,12.38
2022-07-30T06:46:41.302Z,11.20
2022-07-30T06:49:10.522Z,12.52
2022-07-30T06:51:37.214Z,12.52
2022-07-30T06:54:03.994Z,12.38
2022-07-30T06:56:30.556Z,11.70
2022-07-30T06:59:02.986Z,11.85
2022-07-30T07:01:48.201Z,11.93
2022-07-30T07:04:15.019Z,11.25
2022-07-30T07:06:41.691Z,11.77
2022-07-30T07:09:14.546Z,9.95
2022-07-30T07:11:47.812Z,11.23
2022-07-30T07:14:18.026Z,10.68
2022-07-30T07:16:44.894Z,10.70
2022-07-30T07:20:01.684Z,12.15
2022-07-30T07:22:34.571Z,9.55
2022-07-30T07:25:01.253Z,10.80
2022-07-30T07:27:30.845Z,10.20
2022-07-30T07:30:04.945Z,9.68
2022-07-30T07:32:35.176Z,9.38
2022-07-30T07:35:02.639Z,9.90
2022-07-30T07:37:29.607Z,9.98
2022-07-30T07:39:56.392Z,10.73
2022-07-30T07:42:23.584Z,10.93
2022-07-30T07:44:50.792Z,11.60
2022-07-30T07:47:18.238Z,11.45
2022-07-30T07:49:57.702Z,11.65
2022-07-30T07:52:24.376Z,15.93
2022-07-30T07:54:50.980Z,12.48
2022-07-30T07:57:18.017Z,11.60
2022-07-30T07:59:47.109Z,12.68
2022-07-30T08:02:21.242Z,11.95
2022-07-30T08:05:06.824Z,12.40
2022-07-30T08:07:50.702Z,12.70
2022-07-30T08:10:49.165Z,10.48
2022-07-30T08:13:51.399Z,12.85
2022-07-30T08:16:37.933Z,12.45
2022-07-30T08:19:21.309Z,12.27
2022-07-30T08:22:06.565Z,12.25
2022-07-30T08:24:33.404Z,16.52
2022-07-30T08:27:00.653Z,11.27
2022-07-30T08:29:27.634Z,13.45
2022-07-30T08:31:54.331Z,11.90
2022-07-30T08:34:25.531Z,11.13
2022-07-30T08:36:53.248Z,11.20
2022-07-30T08:39:19.980Z,11.80
2022-07-30T08:41:47.126Z,11.20
2022-07-30T08:44:18.682Z,10.82
2022-07-30T08:46:50.751Z,9.80
2022-07-30T08:49:28.009Z,10.23
2022-07-30T08:51:55.543Z,10.85
2022-07-30T08:54:41.363Z,9.15
2022-07-30T08:57:08.432Z,9.23
2022-07-30T09:00:00.157Z,9.50
2022-07-30T09:02:27.549Z,8.02
2022-07-30T09:05:04.862Z,7.57
2022-07-30T09:07:35.703Z,8.35
2022-07-30T09:10:05.500Z,7.85
2022-07-30T09:12:38.131Z,7.03
2022-07-30T09:15:09.448Z,7.97
2022-07-30T09:17:50.078Z,6.75
2022-07-30T09:20:17.781Z,7.28
2022-07-30T09:22:50.118Z,5.53
2022-07-30T09:25:57.040Z,6.85
2022-07-30T09:28:53.346Z,7.03
2022-07-30T09:31:56.668Z,7.55
2022-07-30T09:34:46.047Z,6.97
2022-07-30T09:37:33.677Z,9.73
2022-07-30T09:40:18.879Z,7.40
2022-07-30T09:43:13.284Z,8.80
2022-07-30T09:46:01.648Z,9.52
2022-07-30T09:48:28.755Z,9.00
2022-07-30T09:50:57.394Z,8.18
2022-07-30T09:53:25.019Z,8.20
2022-07-30T09:55:52.067Z,9.95
2022-07-30T09:58:27.106Z,36.95
2022-07-30T10:01:01.570Z,9.85
2022-07-30T10:03:54.604Z,8.40
2022-07-30T10:06:48.564Z,7.40
2022-07-30T10:09:37.320Z,6.93
2022-07-30T10:12:05.986Z,7.25
2022-07-30T10:14:42.691Z,9.05
2022-07-30T10:17:10.449Z,10.05
2022-07-30T10:19:41.951Z,8.90
2022-07-30T10:22:27.959Z,5.90
2022-07-30T10:25:18.872Z,6.13
2022-07-30T10:28:14.641Z,6.03
2022-07-30T10:30:43.642Z,4.88
2022-07-30T10:33:34.929Z,6.53
2022-07-30T10:35:59.065Z,7.00
2022-07-30T10:38:30.318Z,7.63
2022-07-30T10:41:01.656Z,5.65
2022-07-30T10:43:52.312Z,7.30
2022-07-30T10:46:40.499Z,5.90
2022-07-30T10:49:18.601Z,5.43
2022-07-30T10:51:50.779Z,3.85
2022-07-30T10:54:36.508Z,4.35
2022-07-30T10:57:32.108Z,4.70
2022-07-30T10:59:59.993Z,4.35
2022-07-30T11:02:29.312Z,4.10
2022-07-30T11:05:27.130Z,4.97
2022-07-30T11:08:36.391Z,5.20
2022-07-30T11:12:05.763Z,5.28
2022-07-30T11:14:15.769Z,4.75
2022-07-30T11:16:42.838Z,4.38
2022-07-30T11:19:57.032Z,3.72
2022-07-30T11:22:41.240Z,5.00
2022-07-30T11:25:13.005Z,5.10
2022-07-30T11:27:41.104Z,5.60
2022-07-30T11:30:17.882Z,4.28
2022-07-30T11:32:50.551Z,4.57
2022-07-30T11:35:23.310Z,3.88
2022-07-30T11:37:55.960Z,3.88
2022-07-30T11:40:26.204Z,4.75
2022-07-30T11:43:20.678Z,3.97
2022-07-30T11:46:18.047Z,4.00
2022-07-30T11:48:56.927Z,3.83
2022-07-30T11:51:24.013Z,4.03
2022-07-30T11:54:03.658Z,3.38
2022-07-30T11:56:30.419Z,4.50
2022-07-30T11:59:05.369Z,3.83
2022-07-30T12:01:33.611Z,5.63
2022-07-30T12:04:05.161Z,4.63
2022-07-30T12:06:32.274Z,3.92
2022-07-30T12:08:59.731Z,4.65
2022-07-30T12:11:32.911Z,4.10
2022-07-30T12:14:02.175Z,4.00
2022-07-30T12:16:30.933Z,3.95
2022-07-30T12:19:05.491Z,4.18
2022-07-30T12:21:32.714Z,4.03
2022-07-30T12:24:05.314Z,4.38
2022-07-30T12:26:34.433Z,4.07
2022-07-30T12:29:05.273Z,3.72
2022-07-30T12:31:38.466Z,4.07
2022-07-30T12:34:23.173Z,3.72
2022-07-30T12:36:50.194Z,4.15
2022-07-30T12:39:22.235Z,3.53
2022-07-30T12:41:51.079Z,3.55
2022-07-30T12:44:41.687Z,2.72
2022-07-30T12:47:35.522Z,2.95
2022-07-30T12:50:03.915Z,3.63
2022-07-30T12:52:33.711Z,4.03
2022-07-30T12:55:09.072Z,3.30
2022-07-30T12:57:55.662Z,3.00
2022-07-30T13:00:24.594Z,2.97
2022-07-30T13:02:51.562Z,3.00
2022-07-30T13:05:18.292Z,3.00
2022-07-30T13:07:59.068Z,2.45
2022-07-30T13:10:31.257Z,2.97
2022-07-30T13:12:59.030Z,3.37
2022-07-30T13:15:26.393Z,3.00
2022-07-30T13:17:53.024Z,2.75
2022-07-30T13:20:19.815Z,3.60
2022-07-30T13:22:46.465Z,3.00
2022-07-30T13:25:13.519Z,3.03
2022-07-30T13:27:40.198Z,3.20
2022-07-30T13:30:07.829Z,3.00
2022-07-30T13:32:35.374Z,3.70
2022-07-30T13:35:02.222Z,3.53
2022-07-30T13:37:38.333Z,2.97
2022-07-30T13:40:06.919Z,2.30
2022-07-30T13:42:33.669Z,2.35
2022-07-30T13:45:00.321Z,2.83
2022-07-30T13:47:26.921Z,2.55
2022-07-30T13:49:53.622Z,2.50
2022-07-30T13:52:20.187Z,2.65
2022-07-30T13:54:46.829Z,2.80
2022-07-30T13:57:13.476Z,2.97
2022-07-30T13:59:40.039Z,2.30
2022-07-30T14:02:06.673Z,2.42
2022-07-30T14:04:33.290Z,2.65
2022-07-30T14:07:00.123Z,2.92
2022-07-30T14:09:26.983Z,3.03
2022-07-30T14:11:54.085Z,3.00
2022-07-30T14:14:22.584Z,2.83
2022-07-30T14:16:53.709Z,3.25
2022-07-30T14:19:23.116Z,2.92
2022-07-30T14:21:52.867Z,2.50
2022-07-30T14:24:20.549Z,3.40
2022-07-30T14:26:47.148Z,2.58
2022-07-30T14:29:13.885Z,2.85
2022-07-30T14:31:40.777Z,2.28
2022-07-30T14:34:07.605Z,2.67
2022-07-30T14:36:34.819Z,2.92
2022-07-30T14:39:04.752Z,3.08
2022-07-30T14:41:31.853Z,2.85
2022-07-30T14:43:58.507Z,2.72
2022-07-30T14:46:25.095Z,2.58
2022-07-30T14:48:51.773Z,2.90
2022-07-30T14:51:24.276Z,2.60
2022-07-30T14:53:52.214Z,3.22
2022-07-30T14:56:19.465Z,2.65
2022-07-30T14:58:46.325Z,2.40
2022-07-30T15:01:16.675Z,1.98
2022-07-30T15:03:45.315Z,2.13
2022-07-30T15:06:13.050Z,2.50
2022-07-30T15:08:39.676Z,2.53
2022-07-30T15:11:08.035Z,3.20
2022-07-30T15:13:37.080Z,2.50
2022-07-30T15:16:16.365Z,2.38
2022-07-30T15:18:42.925Z,2.30
2022-07-30T15:21:09.557Z,2.33
2022-07-30T15:23:36.223Z,2.47
2022-07-30T15:26:02.812Z,2.83
2022-07-30T15:28:29.383Z,2.50
2022-07-30T15:30:56.113Z,2.60
2022-07-30T15:33:22.774Z,2.72
2022-07-30T15:35:49.594Z,2.92
2022-07-30T15:38:16.327Z,2.72
2022-07-30T15:40:43.827Z,3.45
2022-07-30T15:43:10.667Z,2.67
2022-07-30T15:45:51.295Z,3.22
2022-07-30T15:48:26.631Z,3.30
2022-07-30T15:51:01.798Z,3.10
2022-07-30T15:53:30.262Z,3.72
2022-07-30T15:55:58.000Z,3.78
2022-07-30T15:58:24.640Z,3.33
2022-07-30T16:00:51.309Z,3.30
2022-07-30T16:03:18.094Z,3.33
2022-07-30T16:05:52.417Z,3.60
2022-07-30T16:08:20.610Z,3.50
2022-07-30T16:10:48.108Z,3.42
2022-07-30T16:13:15.017Z,3.00
2022-07-30T16:15:42.766Z,3.47
2022-07-30T16:18:09.431Z,3.58
2022-07-30T16:20:36.046Z,3.05
2022-07-30T16:23:02.771Z,3.55
2022-07-30T16:25:29.397Z,3.72
2022-07-30T16:27:56.011Z,3.08
2022-07-30T16:30:27.561Z,3.78
2022-07-30T16:32:56.430Z,2.70
2022-07-30T16:35:23.513Z,3.10
2022-07-30T16:37:50.375Z,2.92
2022-07-30T16:40:16.972Z,3.25
2022-07-30T16:42:43.669Z,2.95
2022-07-30T16:45:10.539Z,3.42
2022-07-30T16:47:37.218Z,3.25
2022-07-30T16:50:04.800Z,2.88
2022-07-30T16:52:31.457Z,3.15
2022-07-30T16:54:58.163Z,2.75
2022-07-30T16:57:24.753Z,2.95
2022-07-30T16:59:51.354Z,3.28
2022-07-30T17:02:17.989Z,2.97
2022-07-30T17:04:44.553Z,3.70
2022-07-30T17:07:11.222Z,3.15
2022-07-30T17:09:37.810Z,3.80
2022-07-30T17:12:12.305Z,3.90
2022-07-30T17:14:41.228Z,3.30
2022-07-30T17:17:13.795Z,3.25
2022-07-30T17:19:40.827Z,2.80
2022-07-30T17:22:07.404Z,2.97
2022-07-30T17:24:34.013Z,2.65
2022-07-30T17:27:00.842Z,2.78
2022-07-30T17:29:27.446Z,2.53
2022-07-30T17:31:55.632Z,2.53
2022-07-30T17:34:22.266Z,2.50
2022-07-30T17:36:52.187Z,2.75
2022-07-30T17:40:26.280Z,2.83
2022-07-30T17:42:07.819Z,3.08
2022-07-30T17:44:35.532Z,2.80
2022-07-30T17:47:02.278Z,2.65
2022-07-30T17:49:30.011Z,2.55
2022-07-30T17:51:57.111Z,2.67
2022-07-30T17:54:23.792Z,2.95
2022-07-30T17:56:50.426Z,2.60
2022-07-30T17:59:16.977Z,2.60
2022-07-30T18:01:43.569Z,2.60
2022-07-30T18:04:10.214Z,2.45
2022-07-30T18:06:36.824Z,2.97
2022-07-30T18:09:05.020Z,3.05
2022-07-30T18:11:31.681Z,2.65
2022-07-30T18:13:58.306Z,2.17
2022-07-30T18:16:25.457Z,2.45
2022-07-30T18:18:52.142Z,2.47
2022-07-30T18:21:18.709Z,2.50
2022-07-30T18:23:45.409Z,2.80
2022-07-30T18:26:12.604Z,2.65
2022-07-30T18:28:39.242Z,3.05
2022-07-30T18:31:06.173Z,2.50
2022-07-30T18:33:32.948Z,2.53
2022-07-30T18:35:59.685Z,2.83
2022-07-30T18:38:26.303Z,2.30
2022-07-30T18:40:58.834Z,3.15
2022-07-30T18:43:30.762Z,2.37
2022-07-30T18:45:58.452Z,2.40
2022-07-30T18:48:25.268Z,3.10
2022-07-30T18:50:53.047Z,2.85
2022-07-30T18:53:19.683Z,2.05
2022-07-30T18:55:46.336Z,2.58
2022-07-30T18:58:12.914Z,2.33
2022-07-30T19:00:44.134Z,3.00
2022-07-30T19:03:16.462Z,2.30
2022-07-30T19:05:45.490Z,2.70
2022-07-30T19:08:12.311Z,2.42
2022-07-30T19:10:40.042Z,2.40
2022-07-30T19:13:06.822Z,2.63
2022-07-30T19:15:33.553Z,2.67
2022-07-30T19:18:00.132Z,2.67
2022-07-30T19:20:26.871Z,3.00
2022-07-30T19:23:03.841Z,2.60
2022-07-30T19:25:32.467Z,2.95
2022-07-30T19:27:59.757Z,2.80
2022-07-30T19:30:26.609Z,2.30
2022-07-30T19:32:53.232Z,2.67
2022-07-30T19:35:19.911Z,2.88
2022-07-30T19:37:47.006Z,2.63
2022-07-30T19:40:14.103Z,2.42
2022-07-30T19:42:41.680Z,2.75
2022-07-30T19:45:11.768Z,2.38
2022-07-30T19:47:39.588Z,2.70
2022-07-30T19:50:10.197Z,2.75
2022-07-30T19:52:37.903Z,2.63
2022-07-30T19:55:17.168Z,2.72
2022-07-30T19:57:54.276Z,2.58
2022-07-30T20:00:25.098Z,2.78
2022-07-30T20:02:52.681Z,2.80
2022-07-30T20:05:20.261Z,3.30
2022-07-30T20:07:51.454Z,2.50
2022-07-30T20:10:19.474Z,2.95
2022-07-30T20:12:49.664Z,2.55
2022-07-30T20:15:17.151Z,2.72
2022-07-30T20:17:43.823Z,2.70
2022-07-30T20:20:13.751Z,3.05
2022-07-30T20:22:41.077Z,3.00
2022-07-30T20:25:09.103Z,3.00
2022-07-30T20:27:38.948Z,2.88
2022-07-30T20:30:08.199Z,3.00
2022-07-30T20:32:36.759Z,2.83
2022-07-30T20:35:03.942Z,2.90
2022-07-30T20:37:30.532Z,3.55
2022-07-30T20:39:57.309Z,2.90
2022-07-30T20:42:24.751Z,2.80
2022-07-30T20:44:53.518Z,2.60
2022-07-30T20:47:34.609Z,2.83
2022-07-30T20:50:14.121Z,3.10
2022-07-30T20:52:46.709Z,2.78
2022-07-30T20:55:16.845Z,2.60
2022-07-30T20:58:00.234Z,2.97
2022-07-30T21:00:31.635Z,2.55
2022-07-30T21:02:58.369Z,4.00
2022-07-30T21:05:30.317Z,2.80
2022-07-30T21:07:58.191Z,3.15
2022-07-30T21:10:25.480Z,3.30
2022-07-30T21:12:53.362Z,3.15
2022-07-30T21:15:25.332Z,2.70
2022-07-30T21:17:54.579Z,3.03
2022-07-30T21:20:27.757Z,2.78
2022-07-30T21:23:10.931Z,3.00
2022-07-30T21:26:00.068Z,3.33
2022-07-30T21:28:28.083Z,3.10
2022-07-30T21:30:57.220Z,3.10
2022-07-30T21:33:24.335Z,2.58
2022-07-30T21:38:26.609Z,2.50
2022-07-30T21:40:53.573Z,2.60
2022-07-30T21:43:29.484Z,2.67
2022-07-30T21:45:58.382Z,2.85
2022-07-30T21:48:26.281Z,2.40
2022-07-30T21:50:54.986Z,2.60
2022-07-30T21:53:29.885Z,3.10
2022-07-30T21:56:08.459Z,2.60
2022-07-30T21:58:35.071Z,2.50
2022-07-30T22:01:17.188Z,2.75
2022-07-30T22:04:03.307Z,2.50
2022-07-30T22:06:38.340Z,2.90
2022-07-30T22:09:22.210Z,3.00
2022-07-30T22:12:00.687Z,2.63
2022-07-30T22:14:29.057Z,2.80
2022-07-30T22:16:57.010Z,2.85
2022-07-30T22:19:23.782Z,2.60
2022-07-30T22:21:52.949Z,3.13
2022-07-30T22:24:29.873Z,2.42
2022-07-30T22:27:00.959Z,3.05
2022-07-30T22:29:27.989Z,2.58
2022-07-30T22:32:01.851Z,2.80
2022-07-30T22:34:28.790Z,2.88
2022-07-30T22:36:55.374Z,3.00
2022-07-30T22:39:24.308Z,2.88
2022-07-30T22:41:59.096Z,3.42
2022-07-30T22:44:27.640Z,2.90
2022-07-30T22:46:56.167Z,2.45
2022-07-30T22:49:24.487Z,2.47
2022-07-30T22:52:23.615Z,2.90
2022-07-30T22:54:53.105Z,2.88
2022-07-30T22:57:22.954Z,2.75
2022-07-30T23:00:00.266Z,2.20
2022-07-30T23:02:30.631Z,2.58
2022-07-30T23:04:57.197Z,2.88
2022-07-30T23:07:34.071Z,2.83
2022-07-30T23:10:17.691Z,2.67
2022-07-30T23:12:47.086Z,2.92
2022-07-30T23:15:13.934Z,2.90
2022-07-30T23:17:40.776Z,2.70
2022-07-30T23:20:09.942Z,3.20
2022-07-30T23:22:36.713Z,2.72
2022-07-30T23:25:06.384Z,2.63
2022-07-30T23:27:33.418Z,2.88
2022-07-30T23:30:00.012Z,3.20
2022-07-30T23:32:26.651Z,2.78
2022-07-30T23:34:53.227Z,2.65
2022-07-30T23:37:19.879Z,2.60
2022-07-30T23:39:46.715Z,2.85
2022-07-30T23:42:13.321Z,2.80
2022-07-30T23:44:39.877Z,2.33
2022-07-30T23:47:07.530Z,3.00
2022-07-30T23:49:34.257Z,2.97
2022-07-30T23:52:00.867Z,2.67
2022-07-30T23:54:28.913Z,2.65
2022-07-30T23:56:56.343Z,2.63
2022-07-30T23:59:24.164Z,2.75
